Time;durP1;ratioP1;P1;durP2;ratioP2;P2;SDS_P1;SDS_P2;PMS_P1;PMS_P2;Temp;Humidity;BMP_temperature;BMP_pressure;BME280_temperature;BME280_humidity;BME280_pressure;Samples;Min_cycle;Max_cycle;Signal;HPM_P1;HPM_P2
2023/06/06 04:58:56;;;;;;;7.30;3.72;;;18.00;99.90;;;;;;5026817;28;20045;-85
2023/06/06 05:02:07;;;;;;;6.18;3.58;;;18.80;99.90;;;;;;5027474;28;20036;-87
2023/06/06 05:05:29;;;;;;;4.45;3.17;;;19.20;99.90;;;;;;5008963;28;20060;-84
2023/06/06 05:08:02;;;;;;;7.68;3.47;;;19.50;99.90;;;;;;5040469;28;20103;-83
2023/06/06 05:10:40;;;;;;;5.95;3.35;;;19.70;99.90;;;;;;5010738;28;20069;-84
2023/06/06 05:13:19;;;;;;;7.68;3.55;;;19.10;99.90;;;;;;5029014;28;20044;-85
2023/06/06 05:15:57;;;;;;;7.82;3.30;;;18.40;99.90;;;;;;5011461;28;20049;-85
2023/06/06 05:18:23;;;;;;;6.75;3.30;;;18.10;99.90;;;;;;5024567;28;20050;-83
2023/06/06 05:20:49;;;;;;;8.55;3.05;;;18.50;99.90;;;;;;5027380;28;20095;-83
2023/06/06 05:23:15;;;;;;;7.78;3.17;;;19.50;99.90;;;;;;5026219;28;20038;-84
2023/06/06 05:25:43;;;;;;;6.45;2.97;;;20.40;99.90;;;;;;5026643;28;20427;-85
2023/06/06 05:28:11;;;;;;;9.55;3.60;;;20.60;99.90;;;;;;5021460;28;20044;-82
2023/06/06 05:30:38;;;;;;;11.93;3.50;;;20.40;99.90;;;;;;5022840;28;20037;-82
2023/06/06 05:33:03;;;;;;;8.98;3.13;;;19.70;99.90;;;;;;5023024;28;20038;-83
2023/06/06 05:35:29;;;;;;;7.45;3.03;;;19.30;99.90;;;;;;5024958;28;20060;-83
2023/06/06 05:37:54;;;;;;;9.82;3.42;;;18.90;99.90;;;;;;5027674;28;20037;-82
2023/06/06 05:40:20;;;;;;;9.75;3.20;;;18.80;99.90;;;;;;5031101;28;20079;-83
2023/06/06 05:42:45;;;;;;;7.13;3.08;;;18.70;99.90;;;;;;5030802;28;20041;-83
2023/06/06 05:45:11;;;;;;;7.90;2.97;;;18.90;99.90;;;;;;5032513;28;20063;-82
2023/06/06 05:47:37;;;;;;;8.15;3.33;;;18.30;99.90;;;;;;5028432;28;20042;-80
2023/06/06 05:50:04;;;;;;;11.73;4.53;;;18.20;99.90;;;;;;5028774;28;20036;-84
2023/06/06 05:52:30;;;;;;;13.27;3.92;;;18.10;99.90;;;;;;5031646;28;20068;-81
2023/06/06 05:55:05;;;;;;;11.77;3.60;;;18.00;99.90;;;;;;5030751;28;20076;-82
2023/06/06 05:57:30;;;;;;;8.75;3.33;;;17.90;99.90;;;;;;5013738;28;20499;-85
2023/06/06 06:00:00;;;;;;;6.13;2.83;;;17.90;99.90;;;;;;5029429;28;20155;-84
2023/06/06 06:02:28;;;;;;;10.02;3.45;;;18.00;99.90;;;;;;5025467;28;20128;-84
2023/06/06 06:04:56;;;;;;;12.00;4.45;;;18.10;99.90;;;;;;5027637;28;20030;-83
2023/06/06 06:07:23;;;;;;;9.30;3.22;;;18.10;99.90;;;;;;5025812;28;20064;-83
2023/06/06 06:09:48;;;;;;;9.00;3.28;;;18.00;99.90;;;;;;5024630;28;20030;-83
2023/06/06 06:12:15;;;;;;;15.23;3.95;;;18.00;99.90;;;;;;5028369;28;20099;-81
2023/06/06 06:14:40;;;;;;;6.82;3.17;;;18.10;99.90;;;;;;5026260;28;20037;-83
2023/06/06 06:17:06;;;;;;;6.75;3.35;;;18.10;99.90;;;;;;5029039;28;20056;-82
2023/06/06 06:19:31;;;;;;;10.40;3.75;;;18.10;99.90;;;;;;5029170;28;20050;-82
2023/06/06 06:21:57;;;;;;;6.57;3.53;;;18.20;99.90;;;;;;5027967;28;20046;-83
2023/06/06 06:24:22;;;;;;;7.50;3.17;;;18.30;99.90;;;;;;5016917;28;20053;-84
2023/06/06 06:26:51;;;;;;;12.35;4.00;;;18.30;99.90;;;;;;5031311;28;20041;-83
2023/06/06 06:29:16;;;;;;;10.73;3.80;;;18.30;99.90;;;;;;5028152;28;20408;-83
2023/06/06 06:31:42;;;;;;;13.75;3.72;;;18.20;99.90;;;;;;5027421;28;20041;-83
2023/06/06 06:41:34;;;;;;;10.45;3.72;;;18.60;99.90;;;;;;5030035;28;20053;-85
2023/06/06 06:44:41;;;;;;;9.05;3.50;;;18.70;99.90;;;;;;5008558;28;20049;-84
2023/06/06 06:50:55;;;;;;;6.30;3.15;;;19.10;99.90;;;;;;5022272;28;20510;-85
2023/06/06 06:53:25;;;;;;;7.45;4.22;;;19.00;99.90;;;;;;5031761;28;20084;-84
2023/06/06 06:56:27;;;;;;;11.68;3.83;;;19.20;99.90;;;;;;5025023;28;20063;-83
2023/06/06 06:59:32;;;;;;;12.65;4.10;;;19.30;99.90;;;;;;5018826;28;20053;-83
2023/06/06 07:02:57;;;;;;;9.93;3.90;;;19.50;99.90;;;;;;5020353;28;20543;-84
2023/06/06 07:06:02;;;;;;;10.18;3.80;;;19.30;99.90;;;;;;4963754;28;20045;-84
2023/06/06 07:08:33;;;;;;;9.20;3.78;;;19.20;99.90;;;;;;4967526;28;20134;-84
2023/06/06 07:10:59;;;;;;;9.95;3.97;;;19.30;99.90;;;;;;5006271;28;20053;-85
2023/06/06 07:17:10;;;;;;;6.70;3.00;;;19.70;99.90;;;;;;5031783;28;20033;-84
2023/06/06 07:20:22;;;;;;;7.88;3.58;;;19.70;99.90;;;;;;5031563;28;20045;-86
2023/06/06 07:22:50;;;;;;;6.18;4.20;;;19.80;99.90;;;;;;5007771;28;20054;-85
2023/06/06 07:28:57;;;;;;;9.05;3.50;;;19.80;99.90;;;;;;5032882;28;20035;-84
2023/06/06 07:32:05;;;;;;;7.28;3.25;;;19.80;99.90;;;;;;5032745;28;20114;-85
2023/06/06 07:34:42;;;;;;;9.13;3.97;;;19.90;99.90;;;;;;5011596;28;20065;-87
2023/06/06 07:37:10;;;;;;;7.93;3.88;;;20.40;99.90;;;;;;5028685;28;20099;-84
2023/06/06 07:40:32;;;;;;;9.25;4.30;;;20.20;99.90;;;;;;5028493;28;20045;-85
2023/06/06 07:47:24;;;;;;;8.10;3.60;;;20.30;99.90;;;;;;5020571;28;20035;-86
2023/06/06 07:50:47;;;;;;;10.60;3.50;;;20.40;99.90;;;;;;4997329;28;20209;-82
2023/06/06 07:53:25;;;;;;;9.30;3.20;;;20.30;99.90;;;;;;5005995;28;20084;-81
2023/06/06 07:56:20;;;;;;;13.43;4.13;;;20.30;99.90;;;;;;5004341;28;20038;-85
2023/06/06 07:59:26;;;;;;;8.30;3.28;;;20.30;99.90;;;;;;5021992;28;20052;-84
2023/06/06 08:05:06;;;;;;;7.32;3.92;;;20.40;99.90;;;;;;5005026;28;20539;-82
2023/06/06 08:08:06;;;;;;;7.78;4.28;;;20.30;99.90;;;;;;5019413;28;20464;-84
2023/06/06 08:10:48;;;;;;;8.23;3.80;;;20.80;99.90;;;;;;5011492;28;20112;-84
2023/06/06 08:14:04;;;;;;;11.32;4.05;;;20.60;99.90;;;;;;5026767;28;20106;-84
2023/06/06 08:16:33;;;;;;;9.05;3.28;;;20.60;99.90;;;;;;4970704;28;20049;-85
2023/06/06 08:19:14;;;;;;;5.20;3.38;;;20.70;99.90;;;;;;5027206;28;20049;-85
2023/06/06 08:21:40;;;;;;;6.25;3.20;;;20.70;99.90;;;;;;5026094;28;20523;-84
2023/06/06 08:24:05;;;;;;;9.85;2.85;;;20.70;99.90;;;;;;5026311;28;20141;-85
2023/06/06 08:26:32;;;;;;;8.05;3.63;;;20.80;99.90;;;;;;5026037;28;20073;-84
2023/06/06 08:28:57;;;;;;;7.95;2.97;;;20.90;99.90;;;;;;5027874;28;20411;-84
2023/06/06 08:31:23;;;;;;;9.13;3.35;;;21.20;99.90;;;;;;5011130;28;20044;-83
2023/06/06 08:33:49;;;;;;;9.48;3.03;;;21.00;99.90;;;;;;5041342;28;21741;-85
2023/06/06 08:36:15;;;;;;;4.38;2.78;;;21.60;99.90;;;;;;5027758;28;20056;-84
2023/06/06 08:38:43;;;;;;;7.47;3.00;;;21.10;99.90;;;;;;5010668;28;20469;-83
2023/06/06 08:41:10;;;;;;;8.32;3.45;;;21.20;99.90;;;;;;5027819;28;20065;-83
2023/06/06 08:43:39;;;;;;;7.22;3.10;;;20.70;99.90;;;;;;5028304;28;20065;-85
2023/06/06 08:46:05;;;;;;;6.70;2.63;;;20.80;99.90;;;;;;5026543;28;20033;-85
2023/06/06 08:48:33;;;;;;;7.57;3.28;;;21.20;99.90;;;;;;5008810;28;20037;-83
2023/06/06 08:51:01;;;;;;;11.43;3.22;;;21.40;99.90;;;;;;5025486;28;20123;-85
2023/06/06 08:53:26;;;;;;;9.85;3.42;;;21.50;99.90;;;;;;5027126;28;20049;-83
2023/06/06 08:55:56;;;;;;;8.32;2.58;;;21.20;99.90;;;;;;5027640;28;20063;-82
2023/06/06 08:58:22;;;;;;;7.22;3.20;;;21.40;99.90;;;;;;5026499;28;20041;-84
2023/06/06 09:00:53;;;;;;;7.40;3.25;;;21.80;99.90;;;;;;5023646;28;20052;-85
2023/06/06 09:03:19;;;;;;;6.72;3.38;;;21.50;99.90;;;;;;5027959;28;20037;-84
2023/06/06 09:05:47;;;;;;;7.78;2.88;;;21.50;99.90;;;;;;5025498;28;20095;-84
2023/06/06 09:08:12;;;;;;;7.78;3.53;;;21.50;99.90;;;;;;5024006;28;20124;-84
2023/06/06 09:10:38;;;;;;;9.05;3.78;;;21.50;99.90;;;;;;5025603;28;20129;-83
2023/06/06 09:13:03;;;;;;;7.63;3.30;;;21.50;99.90;;;;;;5027118;28;20091;-85
2023/06/06 09:15:29;;;;;;;9.77;3.55;;;21.30;99.90;;;;;;5021224;28;21503;-81
2023/06/06 09:17:55;;;;;;;10.88;3.22;;;21.40;99.90;;;;;;5020582;28;20042;-84
2023/06/06 09:20:22;;;;;;;9.50;3.15;;;21.30;99.90;;;;;;5015954;28;20087;-81
2023/06/06 09:22:49;;;;;;;6.43;2.97;;;21.60;99.90;;;;;;5016124;28;20060;-84
2023/06/06 09:25:17;;;;;;;8.73;4.07;;;21.30;99.90;;;;;;5018242;28;20934;-82
2023/06/06 09:27:43;;;;;;;8.20;3.80;;;21.30;99.90;;;;;;5015884;28;20052;-83
2023/06/06 09:30:26;;;;;;;11.95;4.53;;;21.30;99.90;;;;;;5019743;28;20033;-84
2023/06/06 09:32:56;;;;;;;7.10;3.20;;;21.80;99.90;;;;;;5016615;28;20223;-82
2023/06/06 09:35:22;;;;;;;11.82;4.03;;;21.20;99.90;;;;;;5020697;28;20045;-85
2023/06/06 09:37:49;;;;;;;10.88;3.83;;;21.40;99.90;;;;;;5022609;28;20403;-84
2023/06/06 09:40:16;;;;;;;6.22;2.90;;;21.30;99.90;;;;;;5016252;28;20180;-83
2023/06/06 09:42:45;;;;;;;5.45;3.53;;;21.50;99.90;;;;;;5001927;28;20064;-82
2023/06/06 09:45:18;;;;;;;6.65;3.65;;;21.40;99.90;;;;;;5018476;28;22073;-82
2023/06/06 09:47:48;;;;;;;7.93;3.90;;;21.30;99.90;;;;;;5016398;28;20114;-85
2023/06/06 09:50:16;;;;;;;8.25;3.45;;;21.20;99.90;;;;;;5013955;28;20061;-82
2023/06/06 09:52:42;;;;;;;6.97;3.63;;;21.50;99.90;;;;;;5014554;28;20543;-83
2023/06/06 09:55:09;;;;;;;11.75;4.35;;;21.80;99.90;;;;;;5015044;28;20056;-84
2023/06/06 09:57:37;;;;;;;10.32;3.08;;;21.90;99.90;;;;;;5013422;28;20124;-85
2023/06/06 10:00:09;;;;;;;5.47;2.25;;;22.10;99.90;;;;;;5016295;28;20049;-85
2023/06/06 10:02:42;;;;;;;8.50;3.20;;;22.10;99.90;;;;;;5015012;28;20052;-83
2023/06/06 10:05:10;;;;;;;6.00;2.95;;;22.10;99.90;;;;;;5014032;28;20030;-85
2023/06/06 10:07:41;;;;;;;12.40;3.20;;;22.00;99.90;;;;;;5013246;28;20045;-82
2023/06/06 10:10:11;;;;;;;11.00;4.05;;;22.00;99.90;;;;;;5000444;28;20040;-82
2023/06/06 10:12:37;;;;;;;7.82;4.25;;;22.20;99.90;;;;;;5016380;28;20040;-81
2023/06/06 10:15:05;;;;;;;7.78;3.45;;;22.30;99.90;;;;;;5012725;28;20038;-80
2023/06/06 10:17:36;;;;;;;7.35;3.72;;;22.40;99.90;;;;;;5009996;28;20493;-80
2023/06/06 10:20:05;;;;;;;8.68;3.40;;;22.50;99.90;;;;;;5012818;28;20049;-81
2023/06/06 10:22:34;;;;;;;7.72;4.80;;;22.50;99.90;;;;;;5016804;28;21015;-83
2023/06/06 10:25:01;;;;;;;6.07;3.50;;;22.50;99.90;;;;;;5015334;28;20068;-81
2023/06/06 10:27:34;;;;;;;7.72;4.47;;;22.60;99.90;;;;;;5017032;28;20048;-80
2023/06/06 10:30:29;;;;;;;8.02;4.35;;;22.70;99.90;;;;;;5021232;28;20563;-85
2023/06/06 10:33:27;;;;;;;6.93;4.55;;;22.50;99.90;;;;;;5007248;28;20748;-84
2023/06/06 10:35:57;;;;;;;13.50;5.05;;;22.60;99.90;;;;;;5018885;28;20116;-84
2023/06/06 10:38:22;;;;;;;10.30;4.65;;;22.40;99.90;;;;;;5018815;28;20171;-81
2023/06/06 10:40:52;;;;;;;8.75;4.20;;;22.30;99.90;;;;;;5024209;28;20132;-85
2023/06/06 10:43:33;;;;;;;7.03;4.38;;;22.10;99.90;;;;;;5019253;28;20128;-81
2023/06/06 10:46:00;;;;;;;7.28;4.78;;;22.10;99.90;;;;;;5018916;28;20044;-84
2023/06/06 10:48:45;;;;;;;9.82;4.68;;;22.10;99.90;;;;;;5022311;28;20037;-81
2023/06/06 10:51:34;;;;;;;6.97;4.13;;;21.80;99.90;;;;;;4998578;28;20037;-84
2023/06/06 10:54:26;;;;;;;7.35;4.10;;;21.90;99.90;;;;;;5016063;28;20041;-84
2023/06/06 10:56:53;;;;;;;9.57;4.25;;;22.20;99.90;;;;;;5012961;28;20492;-81
2023/06/06 10:59:31;;;;;;;7.53;3.90;;;22.10;99.90;;;;;;5029943;28;20050;-82
2023/06/06 11:01:58;;;;;;;11.40;5.15;;;22.40;99.90;;;;;;5015529;28;20051;-84
2023/06/06 11:04:25;;;;;;;6.63;4.57;;;22.40;99.90;;;;;;5015431;28;20092;-83
2023/06/06 11:06:52;;;;;;;7.53;4.55;;;22.30;99.90;;;;;;5017724;28;21268;-80
2023/06/06 11:09:24;;;;;;;9.43;4.63;;;22.20;99.90;;;;;;5018148;28;20038;-81
2023/06/06 11:12:11;;;;;;;12.30;5.05;;;22.50;99.90;;;;;;5015538;28;20056;-84
2023/06/06 11:15:12;;;;;;;7.28;4.22;;;22.60;99.90;;;;;;5013429;28;20056;-81
2023/06/06 11:17:48;;;;;;;9.30;4.63;;;22.40;99.90;;;;;;4971607;28;21163;-81
2023/06/06 11:20:24;;;;;;;6.60;4.50;;;22.40;99.90;;;;;;5008509;28;20057;-84
2023/06/06 11:23:04;;;;;;;7.30;4.30;;;22.30;99.90;;;;;;5013114;28;20514;-83
2023/06/06 11:25:36;;;;;;;6.50;4.57;;;22.30;99.90;;;;;;5013682;28;20048;-82
2023/06/06 11:28:05;;;;;;;8.52;5.05;;;22.40;99.90;;;;;;5028769;28;20095;-85
2023/06/06 11:42:24;;;;;;;7.90;4.82;;;22.40;99.90;;;;;;5015671;28;20087;-85
2023/06/06 11:57:17;;;;;;;9.82;5.30;;;22.40;99.90;;;;;;4981413;28;20037;-79
2023/06/06 12:19:22;;;;;;;8.63;4.15;;;22.30;99.90;;;;;;4974499;28;21848;-85
2023/06/06 12:27:02;;;;;;;7.53;3.65;;;22.30;99.90;;;;;;4883525;29;20039;-82
2023/06/06 12:42:31;;;;;;;5.60;3.65;;;22.10;99.90;;;;;;4721233;30;20178;-84
2023/06/06 12:46:16;;;;;;;7.20;3.60;;;22.30;99.90;;;;;;4743178;29;20460;-82
2023/06/06 12:53:14;;;;;;;9.60;3.65;;;22.10;99.90;;;;;;4733481;30;20420;-82
2023/06/06 12:59:35;;;;;;;9.93;4.15;;;21.90;99.90;;;;;;4792310;29;20529;-84
2023/06/06 13:02:06;;;;;;;9.77;3.60;;;21.90;99.90;;;;;;4850685;29;20065;-81
2023/06/06 13:04:32;;;;;;;12.18;3.60;;;22.10;99.90;;;;;;4897137;29;20055;-84
2023/06/06 13:06:58;;;;;;;8.98;4.65;;;22.30;99.90;;;;;;4997809;28;20490;-82
2023/06/06 13:09:23;;;;;;;12.30;3.80;;;22.30;99.90;;;;;;5010177;28;20049;-84
2023/06/06 13:11:50;;;;;;;9.77;3.90;;;22.20;99.90;;;;;;5015119;28;20038;-80
2023/06/06 13:14:16;;;;;;;10.40;4.60;;;22.10;99.90;;;;;;5012820;28;20042;-81
2023/06/06 13:16:41;;;;;;;9.90;4.47;;;22.00;99.90;;;;;;5014959;28;20041;-81
2023/06/06 13:19:10;;;;;;;5.80;3.13;;;21.90;99.90;;;;;;5013191;28;20128;-80
2023/06/06 13:21:36;;;;;;;11.70;3.90;;;21.80;99.90;;;;;;5009184;28;20042;-81
2023/06/06 13:24:01;;;;;;;7.20;3.63;;;21.70;99.90;;;;;;5011479;28;20057;-83
2023/06/06 13:26:27;;;;;;;9.63;4.45;;;21.60;99.90;;;;;;5018864;28;20853;-83
2023/06/06 13:28:52;;;;;;;9.30;4.85;;;21.60;99.90;;;;;;5010918;28;21081;-80
2023/06/06 13:31:18;;;;;;;9.32;3.97;;;21.50;99.90;;;;;;5010210;28;20033;-84
2023/06/06 13:33:44;;;;;;;8.50;3.80;;;21.50;99.90;;;;;;5010928;28;20578;-81
2023/06/06 13:36:09;;;;;;;7.65;3.85;;;21.40;99.90;;;;;;5009137;28;20045;-81
2023/06/06 13:38:35;;;;;;;14.18;4.22;;;21.40;99.90;;;;;;5011078;28;20156;-83
2023/06/06 13:41:01;;;;;;;8.48;4.47;;;21.40;99.90;;;;;;5012373;28;20618;-83
2023/06/06 13:43:26;;;;;;;7.35;3.40;;;21.30;99.90;;;;;;5011678;28;20495;-84
2023/06/06 13:45:52;;;;;;;9.23;3.45;;;21.20;99.90;;;;;;5012434;28;20103;-81
2023/06/06 13:48:17;;;;;;;7.72;3.95;;;21.30;99.90;;;;;;5019069;28;20149;-84
2023/06/06 13:50:43;;;;;;;5.55;3.50;;;21.40;99.90;;;;;;5011285;28;20033;-84
2023/06/06 13:53:08;;;;;;;8.60;3.70;;;21.40;99.90;;;;;;5018909;28;20037;-83
2023/06/06 13:55:34;;;;;;;10.70;4.78;;;21.40;99.90;;;;;;5010135;28;20056;-81
2023/06/06 13:58:03;;;;;;;5.82;3.90;;;21.30;99.90;;;;;;5006115;28;20060;-81
2023/06/06 14:00:30;;;;;;;8.43;4.35;;;21.30;99.90;;;;;;5015753;28;20044;-84
2023/06/06 14:02:55;;;;;;;7.40;4.07;;;21.20;99.90;;;;;;5018548;28;20045;-83
2023/06/06 14:05:21;;;;;;;8.50;3.90;;;21.30;99.90;;;;;;5018722;28;20049;-83
2023/06/06 14:07:47;;;;;;;6.20;3.25;;;21.30;99.90;;;;;;5017565;28;20118;-81
2023/06/06 14:10:13;;;;;;;9.15;3.60;;;21.30;99.90;;;;;;5016873;28;20443;-81
2023/06/06 14:12:38;;;;;;;9.15;3.80;;;21.40;99.90;;;;;;5018199;28;20422;-82
2023/06/06 14:15:04;;;;;;;7.15;3.72;;;21.40;99.90;;;;;;5015244;28;20041;-85
2023/06/06 14:17:30;;;;;;;11.73;4.20;;;21.40;99.90;;;;;;5016395;28;20041;-83
2023/06/06 14:19:56;;;;;;;10.10;3.90;;;21.30;99.90;;;;;;5019734;28;20038;-83
2023/06/06 14:22:29;;;;;;;11.00;4.72;;;21.20;99.90;;;;;;5020987;28;20045;-82
2023/06/06 14:24:56;;;;;;;14.38;4.38;;;21.10;99.90;;;;;;5004041;28;20472;-82
2023/06/06 14:27:29;;;;;;;9.35;3.47;;;21.00;99.90;;;;;;5019943;28;20049;-82
2023/06/06 14:29:55;;;;;;;7.28;3.25;;;21.00;99.90;;;;;;5022865;28;20063;-84
2023/06/06 14:32:23;;;;;;;6.13;3.65;;;20.90;99.90;;;;;;5018537;28;20408;-84
2023/06/06 14:34:48;;;;;;;15.32;4.53;;;20.90;99.90;;;;;;5022116;28;20041;-81
2023/06/06 14:37:14;;;;;;;8.85;3.58;;;20.90;99.90;;;;;;5005328;28;20041;-81
2023/06/06 14:39:40;;;;;;;10.02;3.25;;;21.00;99.90;;;;;;5017932;28;20045;-80
2023/06/06 14:42:07;;;;;;;9.90;3.95;;;21.10;99.90;;;;;;5020337;28;20091;-83
2023/06/06 14:44:36;;;;;;;11.30;3.83;;;21.10;99.90;;;;;;5020923;28;20047;-83
2023/06/06 14:47:04;;;;;;;11.55;4.18;;;21.00;99.90;;;;;;5014597;28;20041;-81
2023/06/06 14:49:29;;;;;;;7.07;3.33;;;21.00;99.90;;;;;;5018131;28;20049;-80
2023/06/06 14:51:55;;;;;;;9.45;3.88;;;21.00;99.90;;;;;;4994823;28;20057;-83
2023/06/06 14:54:21;;;;;;;9.52;3.28;;;20.80;99.90;;;;;;5010299;28;20056;-84
2023/06/06 14:56:46;;;;;;;12.90;4.07;;;20.80;99.90;;;;;;5022584;28;20037;-81
2023/06/06 14:59:12;;;;;;;7.70;3.40;;;20.70;99.90;;;;;;4991357;28;20033;-82
2023/06/06 15:01:39;;;;;;;12.18;3.58;;;20.60;99.90;;;;;;5007987;28;20037;-83
2023/06/06 15:04:05;;;;;;;7.05;4.03;;;20.60;99.90;;;;;;5006101;28;20049;-81
2023/06/06 15:06:30;;;;;;;10.75;3.80;;;20.60;99.90;;;;;;5005250;28;20442;-81
2023/06/06 15:08:56;;;;;;;7.70;4.20;;;20.50;99.90;;;;;;5010619;28;20069;-83
2023/06/06 15:11:21;;;;;;;8.70;3.83;;;20.50;99.90;;;;;;5008888;28;20103;-81
2023/06/06 15:13:47;;;;;;;8.82;3.88;;;20.40;99.90;;;;;;5008397;28;20100;-84
2023/06/06 15:16:14;;;;;;;7.97;3.47;;;20.40;99.90;;;;;;5012884;28;20041;-84
2023/06/06 15:18:40;;;;;;;9.00;3.88;;;20.40;99.90;;;;;;5012367;28;20042;-85
2023/06/06 15:21:05;;;;;;;9.02;4.22;;;20.40;99.90;;;;;;5022938;28;20396;-83
2023/06/06 15:23:31;;;;;;;9.50;3.78;;;20.30;99.90;;;;;;5008488;28;20053;-84
2023/06/06 15:25:57;;;;;;;7.30;3.30;;;20.20;99.90;;;;;;4993834;28;20041;-84
2023/06/06 15:28:26;;;;;;;11.52;3.67;;;20.20;99.90;;;;;;5012231;28;20042;-81
2023/06/06 15:30:55;;;;;;;8.73;3.88;;;20.20;99.90;;;;;;5008419;28;20045;-80
2023/06/06 15:33:20;;;;;;;12.25;4.03;;;20.00;99.90;;;;;;5010987;28;20075;-84
2023/06/06 15:35:46;;;;;;;15.10;3.55;;;20.00;99.90;;;;;;5016120;28;20038;-84
2023/06/06 15:38:11;;;;;;;7.20;3.67;;;20.10;99.90;;;;;;5012599;28;20049;-84
2023/06/06 15:40:37;;;;;;;6.35;2.90;;;20.10;99.90;;;;;;5013110;28;20160;-82
2023/06/06 15:43:02;;;;;;;8.65;3.60;;;20.10;99.90;;;;;;5013855;28;20049;-82
2023/06/06 15:45:28;;;;;;;15.20;3.28;;;20.10;99.90;;;;;;5011426;28;20108;-82
2023/06/06 15:47:54;;;;;;;9.27;3.70;;;20.10;99.90;;;;;;5009318;28;20045;-82
2023/06/06 15:50:20;;;;;;;10.88;3.17;;;20.00;99.90;;;;;;5010916;28;20041;-81
2023/06/06 15:52:45;;;;;;;8.45;3.05;;;20.10;99.90;;;;;;5012257;28;20100;-79
2023/06/06 15:55:11;;;;;;;7.90;3.58;;;20.00;99.90;;;;;;5010250;28;20755;-80
2023/06/06 15:57:36;;;;;;;9.05;3.60;;;19.90;99.90;;;;;;5007015;28;20548;-80
2023/06/06 16:00:06;;;;;;;11.57;3.55;;;19.80;99.90;;;;;;5011343;28;20498;-82
2023/06/06 16:02:31;;;;;;;10.52;3.90;;;19.70;99.90;;;;;;5008645;28;20083;-77
2023/06/06 16:04:57;;;;;;;9.18;3.63;;;19.60;99.90;;;;;;5009965;28;20924;-82
2023/06/06 16:07:23;;;;;;;9.98;3.72;;;19.50;99.90;;;;;;5009882;28;20037;-80
2023/06/06 16:09:48;;;;;;;10.93;4.68;;;19.40;99.90;;;;;;5009581;28;20060;-81
2023/06/06 16:12:14;;;;;;;9.02;3.97;;;19.40;99.90;;;;;;5011042;28;20037;-82
2023/06/06 16:14:40;;;;;;;8.50;3.88;;;19.30;99.90;;;;;;5009299;28;20041;-83
2023/06/06 16:17:06;;;;;;;9.93;4.10;;;19.20;99.90;;;;;;5007813;28;20192;-80
2023/06/06 16:19:31;;;;;;;8.43;2.85;;;19.10;99.90;;;;;;5012250;28;20203;-80
2023/06/06 16:21:57;;;;;;;6.85;2.58;;;19.10;99.90;;;;;;5014169;28;20041;-80
2023/06/06 16:24:22;;;;;;;10.27;3.63;;;19.00;99.90;;;;;;5006209;28;20134;-79
2023/06/06 16:26:48;;;;;;;10.02;4.28;;;19.00;99.90;;;;;;5013778;28;20076;-82
2023/06/06 16:29:14;;;;;;;10.40;5.25;;;19.00;99.90;;;;;;5009679;28;20167;-82
2023/06/06 16:31:39;;;;;;;10.20;3.40;;;18.90;99.90;;;;;;5015488;28;20718;-82
2023/06/06 16:34:05;;;;;;;6.32;3.22;;;19.00;99.90;;;;;;5013389;28;20533;-81
2023/06/06 16:36:31;;;;;;;7.43;3.30;;;18.70;99.90;;;;;;5011497;28;20131;-81
2023/06/06 16:38:57;;;;;;;7.80;3.00;;;18.70;99.90;;;;;;5014579;28;20041;-80
2023/06/06 16:41:23;;;;;;;6.63;3.60;;;18.60;99.90;;;;;;5013363;28;20045;-80
2023/06/06 16:43:49;;;;;;;10.10;4.13;;;18.60;99.90;;;;;;4996019;28;20072;-81
2023/06/06 16:46:14;;;;;;;9.98;3.88;;;18.60;99.90;;;;;;5012889;28;20938;-81
2023/06/06 16:48:40;;;;;;;8.60;3.47;;;18.50;99.90;;;;;;5013745;28;20112;-81
2023/06/06 16:51:06;;;;;;;8.32;3.22;;;18.40;99.90;;;;;;5012890;28;20053;-79
2023/06/06 16:53:31;;;;;;;8.80;3.55;;;18.30;99.90;;;;;;5015899;28;20037;-82
2023/06/06 16:55:57;;;;;;;13.98;3.90;;;18.20;99.90;;;;;;5016034;28;20075;-82
2023/06/06 16:58:23;;;;;;;5.65;3.05;;;18.30;99.90;;;;;;5004815;28;20136;-81
2023/06/06 17:00:48;;;;;;;6.45;3.22;;;18.20;99.90;;;;;;5020734;28;20395;-82
2023/06/06 17:03:14;;;;;;;10.27;3.95;;;18.30;99.90;;;;;;5001609;28;20391;-80
2023/06/06 17:05:40;;;;;;;10.07;3.30;;;18.10;99.90;;;;;;5006003;28;20049;-79
2023/06/06 17:08:06;;;;;;;12.70;3.92;;;18.00;99.90;;;;;;5005555;28;20052;-83
2023/06/06 17:10:32;;;;;;;9.00;2.95;;;17.90;99.90;;;;;;5007495;28;20068;-81
2023/06/06 17:12:57;;;;;;;5.63;2.75;;;17.80;99.90;;;;;;5006671;28;20037;-82
2023/06/06 17:15:23;;;;;;;9.38;3.67;;;17.80;99.90;;;;;;5006790;28;20045;-81
2023/06/06 17:17:48;;;;;;;9.75;3.28;;;17.70;99.90;;;;;;5004345;28;20045;-81
2023/06/06 17:20:14;;;;;;;11.45;4.18;;;17.70;99.90;;;;;;5010428;28;20079;-83
2023/06/06 17:22:40;;;;;;;10.63;3.40;;;17.60;99.90;;;;;;5007193;28;20044;-81
2023/06/06 17:25:08;;;;;;;12.38;4.38;;;17.60;99.90;;;;;;5009774;28;20061;-80
2023/06/06 17:27:36;;;;;;;9.18;4.15;;;17.50;99.90;;;;;;5005684;28;20153;-81
2023/06/06 17:30:05;;;;;;;13.25;4.22;;;17.50;99.90;;;;;;5010890;28;20039;-81
2023/06/06 17:32:32;;;;;;;8.85;3.53;;;17.40;99.90;;;;;;5013193;28;20060;-81
2023/06/06 17:34:58;;;;;;;8.88;3.53;;;17.40;99.90;;;;;;5023092;28;20053;-81
2023/06/06 17:37:23;;;;;;;10.35;3.42;;;17.20;99.90;;;;;;5010308;28;20052;-81
2023/06/06 17:39:49;;;;;;;9.07;3.30;;;17.20;99.90;;;;;;4995293;28;20519;-80
2023/06/06 17:42:16;;;;;;;10.20;3.25;;;17.10;99.90;;;;;;5011061;28;20780;-80
2023/06/06 17:44:42;;;;;;;10.23;3.83;;;17.00;99.90;;;;;;5013635;28;20056;-82
2023/06/06 17:47:08;;;;;;;7.15;3.28;;;17.00;99.90;;;;;;5012788;28;20052;-82
2023/06/06 17:49:33;;;;;;;8.85;3.42;;;16.90;99.90;;;;;;5009644;28;20077;-80
2023/06/06 17:52:00;;;;;;;7.05;3.33;;;16.80;99.90;;;;;;5015400;28;20049;-83
2023/06/06 17:54:25;;;;;;;10.38;3.05;;;16.70;99.90;;;;;;5016566;28;20504;-81
2023/06/06 17:56:51;;;;;;;6.80;3.20;;;16.70;99.90;;;;;;5018052;28;20047;-83
2023/06/06 17:59:16;;;;;;;8.05;3.35;;;16.60;99.90;;;;;;4996221;28;20148;-81
2023/06/06 18:01:42;;;;;;;12.10;3.63;;;16.50;99.90;;;;;;5013312;28;20154;-81
2023/06/06 18:04:10;;;;;;;7.78;4.13;;;16.40;99.90;;;;;;5012512;28;20042;-83
2023/06/06 18:06:36;;;;;;;8.85;3.83;;;16.30;99.90;;;;;;5013218;28;20152;-81
2023/06/06 18:09:01;;;;;;;7.75;3.60;;;16.30;99.90;;;;;;5026230;28;20049;-82
2023/06/06 18:11:27;;;;;;;11.35;4.32;;;16.30;99.90;;;;;;4996700;28;20053;-84
2023/06/06 18:13:53;;;;;;;10.70;3.70;;;16.20;99.90;;;;;;5014627;28;21805;-82
2023/06/06 18:16:19;;;;;;;10.57;3.78;;;16.00;99.90;;;;;;5013420;28;21294;-80
2023/06/06 18:18:47;;;;;;;10.15;3.13;;;16.00;99.90;;;;;;5012371;28;20044;-80
2023/06/06 18:21:12;;;;;;;10.15;4.80;;;15.90;99.90;;;;;;5011412;28;20701;-80
2023/06/06 18:23:39;;;;;;;11.98;3.25;;;16.20;99.90;;;;;;5008395;28;20056;-80
2023/06/06 18:26:06;;;;;;;11.55;4.07;;;15.80;99.90;;;;;;5018676;28;20053;-82
2023/06/06 18:28:32;;;;;;;11.30;4.07;;;15.80;99.90;;;;;;5026656;28;20049;-83
2023/06/06 18:30:58;;;;;;;9.70;3.35;;;15.70;99.90;;;;;;5029605;28;20044;-83
2023/06/06 18:33:23;;;;;;;11.23;3.53;;;15.60;99.90;;;;;;5030801;28;20073;-82
2023/06/06 18:35:49;;;;;;;9.20;3.20;;;15.60;99.90;;;;;;5032240;28;20052;-82
2023/06/06 18:38:15;;;;;;;6.07;3.20;;;15.40;99.90;;;;;;5031891;28;20087;-82
2023/06/06 18:40:41;;;;;;;8.18;3.53;;;15.40;99.90;;;;;;5032724;28;20046;-80
2023/06/06 18:43:07;;;;;;;12.20;3.72;;;15.40;99.90;;;;;;5012804;28;20681;-81
2023/06/06 18:45:33;;;;;;;12.63;4.07;;;15.30;99.90;;;;;;5029827;28;20049;-81
2023/06/06 18:48:02;;;;;;;8.65;4.07;;;15.20;99.90;;;;;;5028590;28;20065;-82
2023/06/06 18:50:29;;;;;;;12.00;4.13;;;15.20;99.90;;;;;;5027909;28;20061;-82
2023/06/06 18:52:55;;;;;;;7.97;3.70;;;15.20;99.90;;;;;;5030865;28;20056;-81
2023/06/06 18:55:21;;;;;;;10.82;3.63;;;15.10;99.90;;;;;;5041491;28;20041;-82
2023/06/06 18:57:51;;;;;;;10.27;3.97;;;15.10;99.90;;;;;;5023996;28;20041;-82
2023/06/06 19:00:17;;;;;;;8.38;3.92;;;15.00;99.90;;;;;;5019918;28;20108;-82
2023/06/06 19:02:43;;;;;;;11.02;4.40;;;14.90;99.90;;;;;;5034550;28;20156;-82
2023/06/06 19:05:10;;;;;;;7.43;3.72;;;15.10;99.90;;;;;;5023951;28;20510;-81
2023/06/06 19:07:36;;;;;;;9.68;4.10;;;14.80;99.90;;;;;;5023232;28;20049;-82
2023/06/06 19:10:07;;;;;;;8.18;3.90;;;14.70;99.90;;;;;;5021569;28;20038;-80
2023/06/06 19:12:33;;;;;;;8.75;4.00;;;14.70;99.90;;;;;;5022679;28;20089;-81
2023/06/06 19:14:58;;;;;;;11.05;4.28;;;14.60;99.90;;;;;;5021757;28;20046;-82
2023/06/06 19:17:24;;;;;;;8.95;3.50;;;14.50;99.90;;;;;;5021135;28;20059;-80
2023/06/06 19:19:50;;;;;;;9.55;4.05;;;14.50;99.90;;;;;;5027076;28;21012;-83
2023/06/06 19:22:16;;;;;;;10.45;4.15;;;14.40;99.90;;;;;;5023911;28;20076;-83
2023/06/06 19:24:41;;;;;;;11.68;4.95;;;14.30;99.90;;;;;;5032727;28;20040;-81
2023/06/06 19:27:08;;;;;;;9.80;3.58;;;14.20;99.90;;;;;;5031596;28;20052;-81
2023/06/06 19:29:33;;;;;;;16.13;4.88;;;14.20;99.90;;;;;;5035308;28;20069;-80
2023/06/06 19:31:59;;;;;;;11.80;5.00;;;14.10;99.90;;;;;;5031604;28;20527;-80